Time;durP1;ratioP1;P1;durP2;ratioP2;P2;SDS_P1;SDS_P2;PMS_P1;PMS_P2;Temp;Humidity;BMP_temperature;BMP_pressure;BME280_temperature;BME280_humidity;BME280_pressure;Samples;Min_cycle;Max_cycle;Signal;HPM_P1;HPM_P2
2024/01/02 00:02:19;;;;;;;1.40;1.10;;;7.80;99.90;;;;;;5005076;28;20429;-67
2024/01/02 00:04:46;;;;;;;2.17;1.60;;;7.80;99.90;;;;;;5008364;28;20694;-67
2024/01/02 00:07:13;;;;;;;6.20;1.77;;;7.80;99.90;;;;;;5007362;28;20463;-67
2024/01/02 00:09:39;;;;;;;7.60;2.00;;;7.90;99.90;;;;;;5004970;28;20441;-68
2024/01/02 00:12:07;;;;;;;0.90;0.80;;;7.80;99.90;;;;;;5001683;28;20495;-67
2024/01/02 00:14:34;;;;;;;4.37;1.97;;;7.70;99.90;;;;;;5005374;28;20492;-66
2024/01/02 00:17:02;;;;;;;1.60;1.07;;;7.80;99.90;;;;;;5001356;28;20479;-67
2024/01/02 00:19:29;;;;;;;3.63;1.40;;;7.80;99.90;;;;;;5005396;28;20755;-67
2024/01/02 00:21:56;;;;;;;1.10;0.90;;;7.80;99.90;;;;;;5001535;28;20453;-67
2024/01/02 00:24:23;;;;;;;1.00;0.90;;;7.70;99.90;;;;;;4998357;28;20462;-67
2024/01/02 00:26:49;;;;;;;1.30;1.20;;;7.70;99.90;;;;;;5003035;28;20462;-67
2024/01/02 00:29:16;;;;;;;1.30;0.93;;;7.70;99.90;;;;;;5008618;28;20459;-67
2024/01/02 00:31:44;;;;;;;17.03;1.47;;;7.70;99.90;;;;;;5006745;28;20797;-67
2024/01/02 00:34:12;;;;;;;3.27;1.40;;;7.60;99.90;;;;;;5010098;28;20995;-67
2024/01/02 00:36:39;;;;;;;1.00;0.90;;;7.60;99.90;;;;;;5002259;28;20435;-66
2024/01/02 00:39:06;;;;;;;0.97;0.87;;;7.70;99.90;;;;;;5006853;28;20423;-67
2024/01/02 00:41:33;;;;;;;1.73;1.43;;;7.70;99.90;;;;;;5002430;28;20469;-67
2024/01/02 00:44:00;;;;;;;1.10;0.90;;;7.80;99.90;;;;;;5000727;28;20457;-67
2024/01/02 00:46:27;;;;;;;10.83;1.87;;;7.80;99.90;;;;;;5003944;28;20930;-66
2024/01/02 00:48:53;;;;;;;1.50;0.80;;;7.80;99.90;;;;;;4998480;28;20480;-66
2024/01/02 00:51:21;;;;;;;2.40;1.20;;;7.80;99.90;;;;;;5001632;28;20496;-67
2024/01/02 00:53:48;;;;;;;3.67;2.07;;;7.80;99.90;;;;;;5003034;28;20469;-67
2024/01/02 00:56:15;;;;;;;1.33;1.20;;;7.80;99.90;;;;;;5000702;28;20440;-67
2024/01/02 00:58:42;;;;;;;3.87;1.20;;;7.80;99.90;;;;;;4998705;28;20436;-67
2024/01/02 01:01:09;;;;;;;3.37;0.90;;;7.90;99.90;;;;;;5001484;28;20858;-66
2024/01/02 01:03:35;;;;;;;1.00;0.77;;;7.70;99.90;;;;;;5000564;28;20486;-67
2024/01/02 01:06:03;;;;;;;1.90;1.07;;;7.80;99.90;;;;;;4996823;28;20428;-66
2024/01/02 01:08:31;;;;;;;3.00;2.10;;;7.80;99.90;;;;;;5007181;28;20445;-67
2024/01/02 01:10:58;;;;;;;1.20;0.83;;;7.80;99.90;;;;;;5001934;28;21267;-67
2024/01/02 01:13:25;;;;;;;1.20;1.00;;;7.80;99.90;;;;;;5000242;28;20435;-67
2024/01/02 01:15:52;;;;;;;1.10;0.70;;;7.90;99.90;;;;;;5000988;28;20568;-66
2024/01/02 01:18:18;;;;;;;1.53;1.13;;;7.90;99.90;;;;;;5006336;28;20450;-67
2024/01/02 01:20:45;;;;;;;2.07;0.90;;;7.80;99.90;;;;;;5006491;28;20538;-68
2024/01/02 01:23:12;;;;;;;1.73;1.10;;;7.90;99.90;;;;;;5001855;28;20868;-66
2024/01/02 01:25:40;;;;;;;4.20;0.97;;;7.90;99.90;;;;;;5001002;28;20437;-67
2024/01/02 01:28:06;;;;;;;1.23;1.13;;;7.90;99.90;;;;;;4999175;28;20456;-66
2024/01/02 01:30:33;;;;;;;0.90;0.70;;;7.80;99.90;;;;;;5003164;28;20442;-66
2024/01/02 01:33:00;;;;;;;1.53;1.23;;;7.90;99.90;;;;;;5002062;28;20485;-67
2024/01/02 01:35:27;;;;;;;2.90;1.27;;;7.90;99.90;;;;;;5003819;28;20449;-68
2024/01/02 01:37:54;;;;;;;1.43;1.10;;;8.00;99.90;;;;;;5004872;28;20799;-67
2024/01/02 01:40:20;;;;;;;1.10;0.80;;;7.90;99.90;;;;;;5003958;28;20456;-67
2024/01/02 01:42:48;;;;;;;1.30;0.90;;;7.80;99.90;;;;;;5006217;28;20413;-66
2024/01/02 01:45:15;;;;;;;2.13;0.90;;;7.90;99.90;;;;;;4995968;28;20478;-67
2024/01/02 01:47:42;;;;;;;3.33;1.00;;;7.90;99.90;;;;;;5001922;28;20500;-67
2024/01/02 01:50:09;;;;;;;1.57;1.00;;;7.80;99.90;;;;;;4998901;28;20938;-67
2024/01/02 01:52:37;;;;;;;5.07;1.07;;;7.80;99.90;;;;;;5004367;28;20463;-68
2024/01/02 01:55:06;;;;;;;1.50;0.90;;;7.90;99.90;;;;;;5005628;28;20469;-67
2024/01/02 01:57:33;;;;;;;0.97;0.87;;;8.00;99.90;;;;;;5005737;28;20523;-67
2024/01/02 02:00:01;;;;;;;0.90;0.60;;;7.80;99.90;;;;;;5006001;28;21226;-67
2024/01/02 02:02:28;;;;;;;2.23;0.77;;;7.90;99.90;;;;;;5004149;28;20472;-66
2024/01/02 02:04:56;;;;;;;2.80;1.20;;;7.90;99.90;;;;;;5005443;28;20469;-67
2024/01/02 02:07:23;;;;;;;1.43;0.87;;;7.90;99.90;;;;;;4996620;28;20439;-66
2024/01/02 02:09:50;;;;;;;2.80;0.93;;;8.00;99.90;;;;;;5006677;28;20908;-67
2024/01/02 02:12:17;;;;;;;3.17;0.83;;;7.90;99.90;;;;;;5004443;28;21225;-67
2024/01/02 02:14:44;;;;;;;1.53;1.43;;;7.90;99.90;;;;;;5002457;28;20443;-67
2024/01/02 02:17:20;;;;;;;1.00;0.70;;;8.00;99.90;;;;;;5005245;28;20457;-67
2024/01/02 02:19:46;;;;;;;1.50;0.80;;;8.00;99.90;;;;;;5006192;28;20424;-67
2024/01/02 02:22:16;;;;;;;1.43;0.80;;;7.90;99.90;;;;;;5006581;28;20461;-67
2024/01/02 02:24:44;;;;;;;4.30;1.33;;;7.90;99.90;;;;;;5008145;28;20435;-67
2024/01/02 02:27:13;;;;;;;2.00;0.87;;;7.90;99.90;;;;;;5008286;28;20436;-67
2024/01/02 02:29:40;;;;;;;0.90;0.67;;;8.00;99.90;;;;;;5007589;28;20452;-67
2024/01/02 02:32:07;;;;;;;3.27;2.30;;;7.90;99.90;;;;;;5010546;28;20462;-67
2024/01/02 02:34:34;;;;;;;1.10;1.00;;;7.80;99.90;;;;;;5009785;28;20436;-66
2024/01/02 02:37:00;;;;;;;3.53;0.90;;;7.80;99.90;;;;;;5012369;28;20431;-67
2024/01/02 02:39:27;;;;;;;1.03;0.93;;;7.80;99.90;;;;;;5005955;28;20895;-66
2024/01/02 02:41:55;;;;;;;1.10;0.93;;;7.90;99.90;;;;;;5009609;28;20488;-67
2024/01/02 02:44:22;;;;;;;1.00;0.90;;;7.90;99.90;;;;;;5010552;28;20587;-67
2024/01/02 02:46:49;;;;;;;1.70;0.83;;;7.90;99.90;;;;;;5013483;28;20465;-67
2024/01/02 02:49:15;;;;;;;0.97;0.73;;;7.80;99.90;;;;;;5005666;28;20897;-66
2024/01/02 02:51:42;;;;;;;0.90;0.70;;;7.80;99.90;;;;;;5010773;28;20492;-68
2024/01/02 02:54:09;;;;;;;2.80;1.07;;;7.80;99.90;;;;;;5010966;28;20472;-67
2024/01/02 02:56:36;;;;;;;1.00;0.80;;;7.80;99.90;;;;;;5008412;28;20941;-67
2024/01/02 02:59:04;;;;;;;1.10;0.80;;;7.80;99.90;;;;;;5010506;28;20456;-67
2024/01/02 03:01:30;;;;;;;1.00;0.70;;;7.80;99.90;;;;;;5005849;28;20457;-67
2024/01/02 03:03:57;;;;;;;2.20;1.10;;;7.80;99.90;;;;;;5009713;28;21084;-67
2024/01/02 03:06:24;;;;;;;0.90;0.60;;;7.70;99.90;;;;;;5007248;28;20468;-67
2024/01/02 03:08:51;;;;;;;2.37;1.03;;;7.70;99.90;;;;;;5006531;28;20788;-67
2024/01/02 03:11:18;;;;;;;0.90;0.60;;;7.70;99.90;;;;;;5002535;28;20915;-67
2024/01/02 03:13:45;;;;;;;1.20;1.07;;;7.60;99.90;;;;;;5007944;28;20469;-67
2024/01/02 03:16:13;;;;;;;0.90;0.67;;;7.60;99.90;;;;;;5008735;28;20472;-67
2024/01/02 03:18:40;;;;;;;0.90;0.70;;;7.60;99.90;;;;;;5010134;28;20512;-67
2024/01/02 03:21:08;;;;;;;2.40;0.70;;;7.60;99.90;;;;;;5006816;28;20477;-67
2024/01/02 03:23:35;;;;;;;1.43;0.80;;;7.60;99.90;;;;;;5005437;28;20911;-67
2024/01/02 03:26:02;;;;;;;0.90;0.80;;;7.50;99.90;;;;;;5006932;28;20466;-67
2024/01/02 03:28:29;;;;;;;0.90;0.70;;;7.50;99.90;;;;;;5006083;28;20477;-67
2024/01/02 03:30:56;;;;;;;0.90;0.60;;;7.50;99.90;;;;;;5005225;28;20472;-67
2024/01/02 03:33:24;;;;;;;0.90;0.70;;;7.60;99.90;;;;;;5007864;28;21009;-68
2024/01/02 03:35:51;;;;;;;2.03;0.97;;;7.50;99.90;;;;;;5001161;28;20602;-67
2024/01/02 03:38:18;;;;;;;0.90;0.70;;;7.40;99.90;;;;;;5008427;28;20496;-67
2024/01/02 03:40:44;;;;;;;0.90;0.70;;;7.40;99.90;;;;;;5005698;28;20429;-67
2024/01/02 03:43:11;;;;;;;0.90;0.70;;;7.40;99.90;;;;;;5010090;28;20457;-67
2024/01/02 03:45:38;;;;;;;0.90;0.70;;;7.50;99.90;;;;;;5006887;28;20447;-67
2024/01/02 03:48:05;;;;;;;0.90;0.70;;;7.40;99.90;;;;;;5004439;28;20476;-67
2024/01/02 03:50:33;;;;;;;1.07;0.80;;;7.50;99.90;;;;;;4999956;28;20483;-67
2024/01/02 03:53:00;;;;;;;0.90;0.70;;;7.50;99.90;;;;;;5003459;28;20834;-66
2024/01/02 03:55:27;;;;;;;1.27;0.70;;;7.60;99.90;;;;;;5005734;28;21075;-66
2024/01/02 03:57:53;;;;;;;0.90;0.70;;;7.50;99.90;;;;;;5005060;28;20460;-66
2024/01/02 04:00:21;;;;;;;2.40;0.90;;;7.50;99.90;;;;;;5006620;28;20435;-67
2024/01/02 04:02:47;;;;;;;0.90;0.60;;;7.50;99.90;;;;;;5002367;28;20512;-67
2024/01/02 04:05:16;;;;;;;0.90;0.60;;;7.60;99.90;;;;;;5004054;28;20477;-68
2024/01/02 04:07:44;;;;;;;0.90;0.63;;;7.60;99.90;;;;;;5004813;28;20445;-68
2024/01/02 04:10:11;;;;;;;4.10;0.80;;;7.60;99.90;;;;;;5004590;28;20465;-68
2024/01/02 04:12:37;;;;;;;0.90;0.70;;;7.50;99.90;;;;;;5003002;28;20493;-67
2024/01/02 04:15:05;;;;;;;0.90;0.60;;;7.50;99.90;;;;;;4998856;28;20440;-67
2024/01/02 04:17:31;;;;;;;0.90;0.60;;;7.50;99.90;;;;;;5007366;28;20465;-67
2024/01/02 04:19:58;;;;;;;0.90;0.60;;;7.50;99.90;;;;;;5000185;28;20481;-67
2024/01/02 04:22:25;;;;;;;0.90;0.70;;;7.50;99.90;;;;;;5007173;28;20575;-66
2024/01/02 04:24:53;;;;;;;7.83;0.90;;;7.40;99.90;;;;;;5006889;28;20499;-67
2024/01/02 04:27:20;;;;;;;0.87;0.60;;;7.50;99.90;;;;;;5005803;28;20458;-67
2024/01/02 04:29:46;;;;;;;0.90;0.60;;;7.50;99.90;;;;;;5000638;28;20452;-66
2024/01/02 04:32:14;;;;;;;0.90;0.80;;;7.50;99.90;;;;;;5006233;28;20490;-67
2024/01/02 04:34:41;;;;;;;1.30;0.70;;;7.50;99.90;;;;;;4992686;28;20497;-67
2024/01/02 04:37:08;;;;;;;0.83;0.60;;;7.60;99.90;;;;;;5005832;28;20470;-67
2024/01/02 04:39:35;;;;;;;0.90;0.60;;;7.70;99.90;;;;;;4997157;28;20461;-67
2024/01/02 04:42:03;;;;;;;0.80;0.60;;;7.70;99.90;;;;;;5000225;28;20456;-67
2024/01/02 04:44:30;;;;;;;0.90;0.80;;;7.80;99.90;;;;;;5004576;28;20494;-69
2024/01/02 04:46:57;;;;;;;0.80;0.60;;;7.80;99.90;;;;;;5002054;28;20487;-67
2024/01/02 04:49:23;;;;;;;0.80;0.60;;;7.80;99.90;;;;;;5002896;28;20465;-67
2024/01/02 04:51:50;;;;;;;0.90;0.70;;;7.80;99.90;;;;;;5006119;28;20468;-67
2024/01/02 04:54:18;;;;;;;0.80;0.70;;;7.90;99.90;;;;;;4999348;28;21004;-66
2024/01/02 04:56:44;;;;;;;1.00;0.73;;;7.90;99.90;;;;;;4996086;28;20891;-67
2024/01/02 04:59:13;;;;;;;0.80;0.60;;;7.90;99.90;;;;;;5002027;28;20449;-67
2024/01/02 05:01:39;;;;;;;0.80;0.60;;;8.00;99.90;;;;;;5000278;28;20569;-68
2024/01/02 05:04:06;;;;;;;0.80;0.60;;;8.00;99.90;;;;;;5001813;28;20476;-68
2024/01/02 05:06:33;;;;;;;0.80;0.60;;;7.90;99.90;;;;;;4998996;28;20500;-67
2024/01/02 05:09:00;;;;;;;0.80;0.60;;;8.00;99.90;;;;;;5002003;28;20477;-67
2024/01/02 05:11:26;;;;;;;0.87;0.70;;;8.10;99.90;;;;;;5002788;28;20469;-67
2024/01/02 05:13:53;;;;;;;0.80;0.60;;;8.10;99.90;;;;;;5005155;28;21053;-67
2024/01/02 05:16:21;;;;;;;0.90;0.77;;;8.10;99.90;;;;;;4999660;28;20468;-67
2024/01/02 05:18:48;;;;;;;0.90;0.70;;;8.10;99.90;;;;;;5002238;28;20832;-67
2024/01/02 05:21:14;;;;;;;1.00;0.90;;;8.10;99.90;;;;;;5004795;28;20465;-67
2024/01/02 05:23:41;;;;;;;1.00;0.70;;;8.20;99.90;;;;;;5004134;28;21335;-67
2024/01/02 05:26:08;;;;;;;0.80;0.60;;;8.20;99.90;;;;;;5004070;28;20465;-67
2024/01/02 05:28:35;;;;;;;1.50;0.70;;;8.30;99.90;;;;;;4998121;28;20845;-66
2024/01/02 05:31:01;;;;;;;0.80;0.60;;;8.30;99.90;;;;;;5005727;28;20453;-67
2024/01/02 05:33:29;;;;;;;0.80;0.60;;;8.30;99.90;;;;;;5004396;28;20976;-67
2024/01/02 05:35:56;;;;;;;0.80;0.60;;;8.20;99.90;;;;;;5005522;28;20476;-67
2024/01/02 05:38:24;;;;;;;0.80;0.60;;;8.30;99.90;;;;;;5000066;28;20457;-67
2024/01/02 05:40:51;;;;;;;0.90;0.70;;;8.30;99.90;;;;;;4999301;28;20453;-67
2024/01/02 05:43:17;;;;;;;1.00;0.90;;;8.20;99.90;;;;;;5003956;28;20483;-66
2024/01/02 05:45:44;;;;;;;1.00;0.80;;;8.30;99.90;;;;;;4999921;28;20429;-67
2024/01/02 05:48:11;;;;;;;1.10;0.80;;;8.20;99.90;;;;;;5006606;28;20429;-68
2024/01/02 05:50:39;;;;;;;2.70;0.73;;;8.20;99.90;;;;;;4988184;28;20480;-65
2024/01/02 05:53:09;;;;;;;0.80;0.60;;;8.20;99.90;;;;;;4999255;28;20464;-66
2024/01/02 05:55:35;;;;;;;0.80;0.70;;;8.30;99.90;;;;;;5000061;28;20465;-68
2024/01/02 05:58:02;;;;;;;0.80;0.60;;;8.40;99.90;;;;;;5008016;28;20954;-66
2024/01/02 06:00:29;;;;;;;0.80;0.60;;;8.40;99.90;;;;;;5008141;28;20464;-67
2024/01/02 06:02:56;;;;;;;0.80;0.60;;;8.40;99.90;;;;;;5005108;28;20458;-67
2024/01/02 06:05:24;;;;;;;0.90;0.70;;;8.50;99.90;;;;;;5009326;28;20998;-67
2024/01/02 06:07:52;;;;;;;1.00;0.80;;;8.50;99.90;;;;;;5006523;28;20457;-67
2024/01/02 06:10:19;;;;;;;0.83;0.70;;;8.50;99.90;;;;;;5009990;28;20454;-67
2024/01/02 06:12:46;;;;;;;0.90;0.70;;;8.50;99.90;;;;;;5005944;28;20506;-67
2024/01/02 06:15:14;;;;;;;0.83;0.63;;;8.60;99.90;;;;;;5009046;28;20480;-68
2024/01/02 06:17:41;;;;;;;0.90;0.80;;;8.70;99.90;;;;;;5010650;28;20535;-66
2024/01/02 06:20:10;;;;;;;0.80;0.60;;;8.70;99.90;;;;;;5007007;28;20460;-67
2024/01/02 06:22:37;;;;;;;0.80;0.60;;;8.80;99.90;;;;;;5013843;28;20456;-67
2024/01/02 06:25:08;;;;;;;1.20;1.00;;;8.80;99.90;;;;;;4999058;28;20451;-66
2024/01/02 06:27:34;;;;;;;0.80;0.60;;;8.90;99.90;;;;;;5010487;28;20465;-66
2024/01/02 06:30:01;;;;;;;0.80;0.60;;;8.90;99.90;;;;;;5004795;28;20449;-67
2024/01/02 06:32:28;;;;;;;0.80;0.70;;;8.90;99.90;;;;;;5007136;28;20469;-67
2024/01/02 06:34:55;;;;;;;0.90;0.77;;;9.00;99.90;;;;;;4999608;28;20485;-66
2024/01/02 06:37:23;;;;;;;0.80;0.70;;;9.00;99.90;;;;;;5005551;28;20457;-67
2024/01/02 06:39:50;;;;;;;0.80;0.60;;;9.00;99.90;;;;;;5007993;28;20457;-67
2024/01/02 06:42:18;;;;;;;0.80;0.60;;;9.10;99.90;;;;;;5007072;28;20479;-66
2024/01/02 06:44:45;;;;;;;0.80;0.60;;;9.10;99.90;;;;;;5003570;28;20461;-66
2024/01/02 06:47:12;;;;;;;0.80;0.60;;;9.10;99.90;;;;;;5008417;28;20588;-66
2024/01/02 06:49:39;;;;;;;0.80;0.60;;;9.20;99.90;;;;;;5002265;28;20935;-67
2024/01/02 06:52:06;;;;;;;0.80;0.60;;;9.20;99.90;;;;;;5006840;28;20445;-66
2024/01/02 06:54:33;;;;;;;0.80;0.60;;;9.20;99.90;;;;;;5006787;28;20475;-67
2024/01/02 06:57:00;;;;;;;0.80;0.60;;;9.30;99.90;;;;;;5004756;28;20469;-66
2024/01/02 06:59:28;;;;;;;0.80;0.60;;;9.30;99.90;;;;;;5000441;28;20445;-66
2024/01/02 07:01:55;;;;;;;0.80;0.60;;;9.30;99.90;;;;;;5007628;28;20830;-67
2024/01/02 07:04:21;;;;;;;0.80;0.70;;;9.40;99.90;;;;;;5001163;28;20453;-66
2024/01/02 07:06:48;;;;;;;0.77;0.60;;;9.40;99.90;;;;;;5006418;28;20451;-66
2024/01/02 07:09:15;;;;;;;0.80;0.60;;;9.50;99.90;;;;;;5005513;28;20947;-66
2024/01/02 07:11:41;;;;;;;0.80;0.70;;;9.60;99.90;;;;;;5008006;28;20432;-66
2024/01/02 07:14:08;;;;;;;0.90;0.80;;;9.60;99.90;;;;;;4995044;28;20490;-66
2024/01/02 07:16:36;;;;;;;0.90;0.77;;;9.60;99.90;;;;;;5007922;28;20553;-67
2024/01/02 07:19:03;;;;;;;0.77;0.63;;;9.70;99.90;;;;;;5004765;28;20449;-67
2024/01/02 07:21:30;;;;;;;1.37;1.27;;;9.70;99.90;;;;;;5007708;28;20454;-67
2024/01/02 07:23:56;;;;;;;0.73;0.60;;;9.70;99.90;;;;;;5003624;28;20457;-67
2024/01/02 07:26:24;;;;;;;1.10;0.63;;;9.80;99.90;;;;;;5006440;28;20843;-67
2024/01/02 07:28:50;;;;;;;0.90;0.80;;;9.80;99.90;;;;;;5002860;28;20572;-66
2024/01/02 07:31:18;;;;;;;1.70;0.77;;;9.90;99.90;;;;;;5002276;28;20457;-66
2024/01/02 07:33:46;;;;;;;0.80;0.67;;;9.90;99.90;;;;;;5001456;28;20492;-67
2024/01/02 07:36:13;;;;;;;0.80;0.80;;;10.00;99.90;;;;;;5005421;28;20466;-67
2024/01/02 07:38:40;;;;;;;1.00;0.80;;;10.10;99.90;;;;;;5002195;28;20564;-67
2024/01/02 07:41:07;;;;;;;1.00;0.90;;;10.10;99.90;;;;;;5003062;28;20572;-67
2024/01/02 07:43:33;;;;;;;0.90;0.83;;;10.10;99.90;;;;;;5002250;28;20470;-67
2024/01/02 07:46:00;;;;;;;1.00;0.90;;;10.10;99.90;;;;;;5004141;28;21447;-67
2024/01/02 07:48:27;;;;;;;0.90;0.80;;;10.20;99.90;;;;;;5004608;28;20445;-67
2024/01/02 07:50:55;;;;;;;0.80;0.70;;;10.20;99.90;;;;;;5002309;28;20485;-67
2024/01/02 07:53:22;;;;;;;1.00;0.90;;;10.30;99.90;;;;;;5002696;28;20481;-68
2024/01/02 07:55:49;;;;;;;1.47;0.93;;;10.30;99.90;;;;;;5001811;28;20457;-68
2024/01/02 07:58:15;;;;;;;1.13;0.97;;;10.40;99.90;;;;;;5008443;28;20512;-67
2024/01/02 08:00:42;;;;;;;1.20;0.80;;;10.40;99.90;;;;;;5003197;28;20917;-66
2024/01/02 08:03:09;;;;;;;1.67;1.57;;;10.50;99.90;;;;;;5004821;28;20960;-67
2024/01/02 08:05:36;;;;;;;1.10;1.00;;;10.50;99.90;;;;;;5001066;28;20503;-67
2024/01/02 08:08:05;;;;;;;1.17;0.73;;;10.50;99.90;;;;;;5004088;28;20484;-66
2024/01/02 08:10:32;;;;;;;0.97;0.87;;;10.60;99.90;;;;;;5003735;28;20456;-67
2024/01/02 08:12:59;;;;;;;0.83;0.70;;;10.60;99.90;;;;;;5002930;28;20465;-67
2024/01/02 08:15:26;;;;;;;0.80;0.60;;;10.70;99.90;;;;;;5004312;28;20492;-67
2024/01/02 08:17:53;;;;;;;0.77;0.67;;;10.70;99.90;;;;;;5005780;28;20835;-67
2024/01/02 08:20:19;;;;;;;1.50;0.90;;;10.70;99.90;;;;;;5007397;28;20449;-67
2024/01/02 08:22:46;;;;;;;0.80;0.80;;;10.80;99.90;;;;;;5004034;28;20451;-67
2024/01/02 08:25:14;;;;;;;1.20;0.70;;;10.90;99.90;;;;;;5006343;28;21003;-67
2024/01/02 08:27:42;;;;;;;1.00;0.83;;;10.80;99.90;;;;;;5002485;28;20461;-67
2024/01/02 08:30:09;;;;;;;1.10;0.80;;;10.80;99.90;;;;;;5002800;28;20492;-66
2024/01/02 08:32:36;;;;;;;1.10;1.00;;;10.90;99.90;;;;;;5002880;28;21069;-67
2024/01/02 08:35:03;;;;;;;0.83;0.70;;;10.90;99.90;;;;;;5012133;28;20486;-67
2024/01/02 08:37:30;;;;;;;1.37;1.27;;;10.90;99.90;;;;;;4997814;28;20841;-67
2024/01/02 08:39:56;;;;;;;4.03;1.10;;;11.00;99.90;;;;;;5003255;28;20451;-67
2024/01/02 08:42:25;;;;;;;3.60;1.03;;;11.00;99.90;;;;;;5001959;28;20543;-66
2024/01/02 08:44:51;;;;;;;0.97;0.87;;;11.00;99.90;;;;;;5006140;28;20504;-67
2024/01/02 08:47:18;;;;;;;1.20;1.03;;;11.00;99.90;;;;;;5005351;28;20458;-68
2024/01/02 08:49:45;;;;;;;1.33;1.13;;;11.10;99.90;;;;;;5001702;28;20476;-67
2024/01/02 08:52:13;;;;;;;1.73;1.13;;;11.10;99.90;;;;;;4999711;28;20553;-67
2024/01/02 08:54:39;;;;;;;1.50;1.20;;;11.10;99.90;;;;;;5005619;28;20991;-66
2024/01/02 08:57:06;;;;;;;2.30;1.90;;;11.10;99.90;;;;;;4998788;28;20881;-67
2024/01/02 08:59:34;;;;;;;1.57;1.23;;;11.10;99.90;;;;;;5005794;28;20461;-67
2024/01/02 09:02:02;;;;;;;6.00;2.13;;;11.10;99.90;;;;;;5006903;28;20436;-67
2024/01/02 09:04:29;;;;;;;2.47;2.27;;;11.20;99.90;;;;;;5005508;28;20464;-67
2024/01/02 09:06:56;;;;;;;1.70;1.30;;;11.20;99.90;;;;;;5001407;28;20548;-67
2024/01/02 09:09:23;;;;;;;1.67;1.57;;;11.20;99.90;;;;;;5004647;28;20974;-67
2024/01/02 09:11:49;;;;;;;2.23;2.03;;;11.30;99.90;;;;;;5003477;28;20557;-67
2024/01/02 09:14:16;;;;;;;1.67;1.57;;;11.30;99.90;;;;;;5004186;28;20492;-67
2024/01/02 09:16:45;;;;;;;3.33;1.53;;;11.30;99.90;;;;;;5004863;28;20464;-67
2024/01/02 09:19:12;;;;;;;2.37;1.50;;;11.30;99.90;;;;;;5003852;28;20454;-67
2024/01/02 09:21:39;;;;;;;2.10;1.40;;;11.30;99.90;;;;;;5004043;28;20482;-67
2024/01/02 09:24:06;;;;;;;1.77;1.27;;;11.30;99.90;;;;;;5002998;28;20822;-66
2024/01/02 09:26:34;;;;;;;3.07;1.87;;;11.40;99.90;;;;;;5005096;28;20481;-67
2024/01/02 09:29:01;;;;;;;1.67;1.40;;;11.40;99.90;;;;;;5004440;28;20916;-66
2024/01/02 09:31:30;;;;;;;2.10;1.83;;;11.40;99.90;;;;;;5001403;28;20461;-67
2024/01/02 09:33:58;;;;;;;2.00;1.40;;;11.50;99.90;;;;;;5002212;28;20580;-67
2024/01/02 09:36:29;;;;;;;1.10;1.00;;;11.40;99.90;;;;;;5004259;28;20466;-67
2024/01/02 09:38:56;;;;;;;2.00;1.50;;;11.50;99.90;;;;;;4998949;28;20469;-67
2024/01/02 09:41:43;;;;;;;1.00;0.90;;;11.60;99.90;;;;;;5004066;28;20446;-67
2024/01/02 09:44:21;;;;;;;1.60;1.50;;;11.60;99.90;;;;;;5001560;28;20481;-67
2024/01/02 09:46:59;;;;;;;1.30;1.07;;;11.70;99.90;;;;;;5001857;28;20465;-67
2024/01/02 09:49:32;;;;;;;1.50;1.40;;;11.60;99.90;;;;;;4996625;28;20456;-67
2024/01/02 09:52:21;;;;;;;1.20;1.10;;;11.70;99.90;;;;;;5000616;28;20828;-66
2024/01/02 09:54:56;;;;;;;1.83;1.40;;;11.70;99.90;;;;;;4999296;28;20485;-67
2024/01/02 09:57:32;;;;;;;2.07;1.33;;;11.70;99.90;;;;;;4999982;28;20460;-67
2024/01/02 10:00:07;;;;;;;2.20;1.57;;;11.70;99.90;;;;;;4995539;28;20485;-67
2024/01/02 10:02:58;;;;;;;1.30;1.10;;;11.70;99.90;;;;;;5002046;28;20468;-67
2024/01/02 10:05:44;;;;;;;1.33;1.20;;;11.80;99.90;;;;;;5001351;28;20469;-67
2024/01/02 10:08:26;;;;;;;2.33;1.00;;;11.80;99.90;;;;;;4996190;28;21004;-68
2024/01/02 10:11:07;;;;;;;1.10;0.97;;;11.80;99.90;;;;;;4998246;28;20449;-68
2024/01/02 10:13:47;;;;;;;1.50;1.10;;;11.80;99.90;;;;;;5002135;28;20470;-68
2024/01/02 10:16:23;;;;;;;5.03;1.63;;;11.90;99.90;;;;;;5003197;28;20465;-67
2024/01/02 10:19:02;;;;;;;1.93;1.23;;;11.90;99.90;;;;;;5000846;28;20938;-67
2024/01/02 10:21:38;;;;;;;1.93;1.07;;;11.90;99.90;;;;;;5005369;28;20481;-67
2024/01/02 10:24:19;;;;;;;1.10;1.00;;;11.90;99.90;;;;;;5004580;28;20447;-67
2024/01/02 10:29:43;;;;;;;0.93;0.80;;;11.80;99.90;;;;;;5091211;23;20930;-67
2024/01/02 10:32:13;;;;;;;2.40;0.90;;;11.80;99.90;;;;;;4995775;28;20458;-67
2024/01/02 10:34:48;;;;;;;1.20;1.10;;;11.90;99.90;;;;;;4998780;28;20482;-67
2024/01/02 10:37:19;;;;;;;0.93;0.83;;;11.90;99.90;;;;;;5002863;28;20480;-67
2024/01/02 10:39:53;;;;;;;0.87;0.70;;;11.90;99.90;;;;;;5004728;28;20441;-67
2024/01/02 10:42:30;;;;;;;4.60;1.27;;;11.90;99.90;;;;;;5006085;28;20449;-67
2024/01/02 10:45:10;;;;;;;1.40;1.20;;;11.90;99.90;;;;;;5003260;28;20467;-68
2024/01/02 10:47:52;;;;;;;1.20;1.10;;;11.90;99.90;;;;;;5002695;28;20471;-68
2024/01/02 10:50:25;;;;;;;11.00;1.33;;;11.90;99.90;;;;;;5004435;28;20459;-68
2024/01/02 10:53:03;;;;;;;1.10;1.00;;;11.80;99.90;;;;;;5008265;28;20461;-68
2024/01/02 10:55:39;;;;;;;1.10;0.93;;;11.80;99.90;;;;;;5008878;28;21017;-67
2024/01/02 10:58:11;;;;;;;1.20;0.87;;;11.90;99.90;;;;;;5003009;28;20461;-67
2024/01/02 11:00:48;;;;;;;0.90;0.70;;;11.90;99.90;;;;;;5007466;28;20441;-68
2024/01/02 11:03:17;;;;;;;1.03;0.80;;;12.00;99.90;;;;;;5000076;28;20587;-69
2024/01/02 11:05:46;;;;;;;1.03;0.93;;;12.00;99.90;;;;;;5010092;28;20476;-68
2024/01/02 11:08:20;;;;;;;2.17;0.90;;;12.00;99.90;;;;;;5007111;28;20523;-67
2024/01/02 11:10:54;;;;;;;1.20;0.93;;;12.00;99.90;;;;;;5013710;28;20442;-67
2024/01/02 11:13:21;;;;;;;1.37;0.90;;;12.00;99.90;;;;;;5007138;28;20461;-67
2024/01/02 11:15:52;;;;;;;0.90;0.67;;;12.10;99.90;;;;;;5012497;28;20488;-67
2024/01/02 11:18:19;;;;;;;1.20;1.10;;;12.10;99.90;;;;;;5005041;28;21201;-67
2024/01/02 11:20:56;;;;;;;0.80;0.70;;;12.10;99.90;;;;;;5010864;28;20485;-68
2024/01/02 11:23:27;;;;;;;4.23;1.00;;;12.10;99.90;;;;;;5007469;28;20490;-68
2024/01/02 11:26:01;;;;;;;1.57;0.93;;;12.10;99.90;;;;;;5009022;28;20851;-67
2024/01/02 11:28:28;;;;;;;1.90;1.03;;;12.10;99.90;;;;;;5007146;28;20469;-68
2024/01/02 11:30:57;;;;;;;1.03;0.93;;;12.10;99.90;;;;;;5009628;28;20453;-67
2024/01/02 11:33:36;;;;;;;1.00;0.90;;;12.20;99.90;;;;;;5007891;28;20473;-68
2024/01/02 11:36:18;;;;;;;1.30;1.00;;;12.20;99.90;;;;;;5007164;28;20507;-68
2024/01/02 11:38:59;;;;;;;2.70;0.97;;;12.20;99.90;;;;;;5007069;28;20465;-68
2024/01/02 11:41:43;;;;;;;1.10;0.70;;;12.20;99.90;;;;;;5007884;28;20461;-68
2024/01/02 11:44:25;;;;;;;0.90;0.70;;;12.20;99.90;;;;;;5006370;28;20485;-69
2024/01/02 11:47:01;;;;;;;1.00;0.80;;;12.20;99.90;;;;;;5002743;28;20442;-68
2024/01/02 11:49:29;;;;;;;1.10;0.70;;;12.20;99.90;;;;;;5004114;28;20449;-69
2024/01/02 11:51:58;;;;;;;1.57;0.70;;;12.20;99.90;;;;;;5004600;28;20519;-69
2024/01/02 11:54:37;;;;;;;1.10;0.80;;;12.20;99.90;;;;;;5009814;28;20488;-67
2024/01/02 11:57:11;;;;;;;0.90;0.80;;;12.20;99.90;;;;;;5005815;28;20828;-68
2024/01/02 11:59:47;;;;;;;0.90;0.70;;;12.20;99.90;;;;;;5007729;28;20487;-67
2024/01/02 12:02:21;;;;;;;1.37;1.00;;;12.20;99.90;;;;;;5007652;28;20452;-67
2024/01/02 12:05:08;;;;;;;1.10;1.00;;;12.30;99.90;;;;;;5009004;28;21006;-67
2024/01/02 12:07:39;;;;;;;0.90;0.80;;;12.20;99.90;;;;;;5004849;28;20468;-67
2024/01/02 12:10:08;;;;;;;0.90;0.70;;;12.20;99.90;;;;;;5008747;28;20835;-67
2024/01/02 12:12:45;;;;;;;1.20;0.80;;;12.30;99.90;;;;;;5010145;28;20464;-67
2024/01/02 12:15:17;;;;;;;1.07;0.80;;;12.30;99.90;;;;;;5007007;28;20489;-67
2024/01/02 12:17:53;;;;;;;0.90;0.63;;;12.30;99.90;;;;;;5008310;28;20439;-67
2024/01/02 12:20:21;;;;;;;1.07;0.80;;;12.30;99.90;;;;;;5005248;28;20524;-67
2024/01/02 12:22:49;;;;;;;1.00;0.80;;;12.30;99.90;;;;;;5006482;28;20465;-68
2024/01/02 12:25:17;;;;;;;0.90;0.60;;;12.30;99.90;;;;;;5007426;28;20488;-67
2024/01/02 12:27:47;;;;;;;0.90;0.80;;;12.20;99.90;;;;;;5008728;28;20471;-68
2024/01/02 12:30:22;;;;;;;1.00;0.70;;;12.20;99.90;;;;;;5007616;28;20460;-68
2024/01/02 12:33:01;;;;;;;0.90;0.70;;;12.00;99.90;;;;;;5007775;28;20464;-68
2024/01/02 12:35:31;;;;;;;1.00;0.90;;;12.10;99.90;;;;;;5009691;28;20495;-68
2024/01/02 12:38:10;;;;;;;1.87;0.80;;;12.10;99.90;;;;;;5011505;28;20536;-68
2024/01/02 12:40:44;;;;;;;0.90;0.70;;;12.10;99.90;;;;;;5001670;28;20841;-68
2024/01/02 12:43:13;;;;;;;1.00;0.70;;;12.10;99.90;;;;;;5005495;28;20471;-67
2024/01/02 12:45:45;;;;;;;1.57;0.80;;;12.00;99.90;;;;;;5007344;28;20424;-68
2024/01/02 12:48:18;;;;;;;1.20;0.90;;;12.10;99.90;;;;;;5006852;28;20512;-67
2024/01/02 12:50:50;;;;;;;1.47;0.90;;;12.00;99.90;;;;;;5003810;28;20862;-67
2024/01/02 12:53:19;;;;;;;1.13;1.03;;;11.90;99.90;;;;;;5004995;28;20437;-68
2024/01/02 12:55:52;;;;;;;0.90;0.70;;;11.80;99.90;;;;;;5005451;28;20491;-68
2024/01/02 12:58:19;;;;;;;1.93;1.00;;;11.70;99.90;;;;;;5007785;28;20457;-68
2024/01/02 13:00:46;;;;;;;2.27;1.20;;;11.40;99.90;;;;;;5005229;28;20453;-68
2024/01/02 13:03:14;;;;;;;1.20;1.10;;;11.40;99.90;;;;;;5010808;28;20446;-68
2024/01/02 13:05:43;;;;;;;1.60;0.97;;;11.30;99.90;;;;;;5006399;28;20480;-67